createdAt,value
2019-02-26T00:01:30.905Z,55.27
2019-02-26T00:04:00.812Z,55.29
2019-02-26T00:06:30.473Z,55.71
2019-02-26T00:09:03.182Z,55.88
2019-02-26T00:11:35.701Z,56.39
2019-02-26T00:14:05.251Z,56.38
2019-02-26T00:16:37.646Z,56.59
2019-02-26T00:19:07.439Z,56.71
2019-02-26T00:21:37.935Z,56.55
2019-02-26T00:24:09.903Z,56.85
2019-02-26T00:26:40.769Z,56.74
2019-02-26T00:29:10.753Z,56.57
2019-02-26T00:31:40.491Z,56.28
2019-02-26T00:34:10.832Z,56.62
2019-02-26T00:36:41.630Z,56.54
2019-02-26T00:39:11.468Z,56.66
2019-02-26T00:41:41.126Z,57.15
2019-02-26T00:44:10.800Z,57.39
2019-02-26T00:46:40.701Z,57.29
2019-02-26T00:49:10.386Z,57.85
2019-02-26T00:51:44.317Z,57.53
2019-02-26T00:54:11.353Z,57.86
2019-02-26T00:56:41.152Z,58.17
2019-02-26T00:59:10.890Z,58.05
2019-02-26T01:01:44.106Z,58.34
2019-02-26T01:04:12.052Z,58.36
2019-02-26T01:06:41.908Z,58.57
2019-02-26T01:09:13.872Z,58.45
2019-02-26T01:11:45.190Z,57.73
2019-02-26T01:14:15.784Z,58.15
2019-02-26T01:16:48.194Z,58.40
2019-02-26T01:19:19.734Z,58.33
2019-02-26T01:21:49.384Z,58.45
2019-02-26T01:24:21.323Z,58.75
2019-02-26T01:26:51.322Z,59.26
2019-02-26T01:29:23.044Z,59.26
2019-02-26T01:31:52.832Z,59.17
2019-02-26T01:34:22.850Z,59.79
2019-02-26T01:36:52.571Z,59.75
2019-02-26T01:39:23.373Z,59.44
2019-02-26T01:41:56.018Z,59.47
2019-02-26T01:44:28.059Z,59.32
2019-02-26T01:46:57.807Z,59.17
2019-02-26T01:49:28.523Z,59.61
2019-02-26T01:51:58.676Z,59.55
2019-02-26T01:54:30.538Z,59.75
2019-02-26T01:57:00.555Z,59.72
2019-02-26T01:59:31.730Z,59.79
2019-02-26T02:02:02.053Z,59.64
2019-02-26T02:04:34.199Z,59.72
2019-02-26T02:07:06.028Z,60.31
2019-02-26T02:09:35.901Z,60.21
2019-02-26T02:12:07.111Z,60.23
2019-02-26T02:14:37.011Z,60.14
2019-02-26T02:17:08.502Z,59.81
2019-02-26T02:19:38.693Z,60.11
2019-02-26T02:22:10.045Z,59.92
2019-02-26T02:24:41.838Z,60.13
2019-02-26T02:27:15.003Z,60.00
2019-02-26T02:29:45.734Z,59.76
2019-02-26T02:32:14.884Z,60.06
2019-02-26T02:34:44.664Z,59.48
2019-02-26T02:37:17.973Z,59.96
2019-02-26T02:39:48.340Z,59.98
2019-02-26T02:42:19.118Z,59.49
2019-02-26T02:44:52.547Z,59.83
2019-02-26T02:47:21.613Z,59.69
2019-02-26T02:49:51.493Z,59.79
2019-02-26T02:52:21.608Z,59.90
2019-02-26T02:54:51.887Z,59.88
2019-02-26T02:57:24.190Z,59.89
2019-02-26T02:59:55.016Z,60.39
2019-02-26T03:02:26.207Z,60.56
2019-02-26T03:04:56.219Z,60.47
2019-02-26T03:07:27.486Z,60.48
2019-02-26T03:09:58.016Z,60.64
2019-02-26T03:12:28.980Z,60.61
2019-02-26T03:15:00.017Z,61.02
2019-02-26T03:17:30.496Z,61.23
2019-02-26T03:20:04.161Z,61.28
2019-02-26T03:22:33.375Z,61.23
2019-02-26T03:25:04.359Z,61.21
2019-02-26T03:27:36.306Z,61.49
2019-02-26T03:30:06.582Z,61.55
2019-02-26T03:32:41.230Z,61.20
2019-02-26T03:35:10.263Z,61.00
2019-02-26T03:37:39.881Z,61.34
2019-02-26T03:40:10.331Z,60.88
2019-02-26T03:42:41.631Z,60.86
2019-02-26T03:45:12.853Z,61.00
2019-02-26T03:47:42.781Z,60.95
2019-02-26T03:50:13.919Z,61.24
2019-02-26T03:52:44.221Z,61.36
2019-02-26T03:55:18.276Z,60.82
2019-02-26T03:57:48.127Z,60.79
2019-02-26T04:00:19.901Z,60.89
2019-02-26T04:02:51.522Z,61.07
2019-02-26T04:05:22.122Z,61.11
2019-02-26T04:07:55.028Z,61.53
2019-02-26T04:10:23.565Z,61.03
2019-02-26T04:12:55.321Z,61.04
2019-02-26T04:15:27.242Z,61.00
2019-02-26T04:17:56.401Z,61.59
2019-02-26T04:20:27.842Z,61.66
2019-02-26T04:22:57.931Z,61.63
2019-02-26T04:25:31.404Z,61.44
2019-02-26T04:28:11.937Z,61.53
2019-02-26T04:30:55.610Z,61.53
2019-02-26T04:34:01.911Z,61.56
2019-02-26T04:36:41.648Z,61.32
2019-02-26T04:39:36.827Z,61.76
2019-02-26T04:42:21.535Z,61.78
2019-02-26T04:45:04.901Z,61.45
2019-02-26T04:47:34.018Z,61.49
2019-02-26T04:50:06.202Z,61.68
2019-02-26T04:52:37.772Z,61.84
2019-02-26T04:55:07.277Z,62.03
2019-02-26T04:57:39.391Z,61.73
2019-02-26T05:00:10.486Z,61.95
2019-02-26T05:02:40.834Z,61.71
2019-02-26T05:05:11.045Z,62.18
2019-02-26T05:07:42.195Z,61.93
2019-02-26T05:10:12.742Z,62.22
2019-02-26T05:12:42.649Z,61.80
2019-02-26T05:15:16.962Z,61.87
2019-02-26T05:17:44.090Z,61.90
2019-02-26T05:20:16.505Z,61.49
2019-02-26T05:22:45.705Z,61.35
2019-02-26T05:25:19.201Z,61.46
2019-02-26T05:27:48.773Z,61.31
2019-02-26T05:30:20.063Z,61.23
2019-02-26T05:32:51.940Z,61.21
2019-02-26T05:35:23.364Z,60.82
2019-02-26T05:37:55.491Z,60.67
2019-02-26T05:40:24.375Z,60.88
2019-02-26T05:42:56.026Z,60.66
2019-02-26T05:45:27.191Z,60.94
2019-02-26T05:47:58.906Z,61.05
2019-02-26T05:50:30.197Z,60.62
2019-02-26T05:53:01.711Z,60.74
2019-02-26T05:55:31.904Z,61.25
2019-02-26T05:58:01.981Z,60.71
2019-02-26T06:00:33.318Z,59.52
2019-02-26T06:03:06.170Z,57.96
2019-02-26T06:05:35.730Z,56.78
2019-02-26T06:08:05.847Z,55.29
2019-02-26T06:10:36.057Z,54.26
2019-02-26T06:13:07.654Z,53.97
2019-02-26T06:15:37.336Z,53.91
2019-02-26T06:18:07.119Z,52.58
2019-02-26T06:20:37.156Z,53.59
2019-02-26T06:23:07.293Z,52.99
2019-02-26T06:25:37.011Z,52.60
2019-02-26T06:28:09.869Z,51.71
2019-02-26T06:30:38.615Z,51.65
2019-02-26T06:33:09.807Z,51.11
2019-02-26T06:35:41.126Z,51.90
2019-02-26T06:38:12.336Z,51.23
2019-02-26T06:40:46.528Z,52.10
2019-02-26T06:43:14.092Z,50.95
2019-02-26T06:45:45.853Z,50.16
2019-02-26T06:48:17.633Z,49.58
2019-02-26T06:50:48.546Z,49.70
2019-02-26T06:53:21.474Z,49.92
2019-02-26T06:55:50.425Z,50.34
2019-02-26T06:58:27.462Z,49.25
2019-02-26T07:00:58.321Z,48.57
2019-02-26T07:03:28.294Z,48.09
2019-02-26T07:06:01.974Z,46.89
2019-02-26T07:08:30.961Z,47.40
2019-02-26T07:11:03.646Z,47.29
2019-02-26T07:13:36.179Z,47.82
2019-02-26T07:16:05.740Z,47.65
2019-02-26T07:18:36.008Z,47.29
2019-02-26T07:21:06.155Z,46.83
2019-02-26T07:23:38.211Z,46.31
2019-02-26T07:26:08.198Z,46.87
2019-02-26T07:28:39.709Z,46.55
2019-02-26T07:31:12.021Z,47.85
2019-02-26T07:33:41.373Z,47.37
2019-02-26T07:36:11.420Z,47.63
2019-02-26T07:38:44.053Z,47.12
2019-02-26T07:41:12.743Z,47.88
2019-02-26T07:43:46.340Z,47.97
2019-02-26T07:46:14.695Z,47.03
2019-02-26T07:48:46.170Z,47.34
2019-02-26T07:51:17.252Z,47.94
2019-02-26T07:53:49.302Z,46.25
2019-02-26T07:56:20.669Z,46.23
2019-02-26T07:58:50.729Z,46.63
2019-02-26T08:01:20.792Z,46.26
2019-02-26T08:03:51.430Z,47.37
2019-02-26T08:06:22.049Z,47.09
2019-02-26T08:08:51.897Z,46.05
2019-02-26T08:11:21.853Z,45.27
2019-02-26T08:13:54.237Z,44.60
2019-02-26T08:16:25.818Z,44.80
2019-02-26T08:18:57.127Z,43.93
2019-02-26T08:21:29.176Z,44.58
2019-02-26T08:23:59.323Z,45.25
2019-02-26T08:26:29.299Z,45.34
2019-02-26T08:29:00.230Z,45.34
2019-02-26T08:31:31.005Z,44.61
2019-02-26T08:34:01.203Z,45.20
2019-02-26T08:36:31.310Z,45.63
2019-02-26T08:39:01.440Z,45.06
2019-02-26T08:41:33.033Z,45.56
2019-02-26T08:44:03.279Z,46.02
2019-02-26T08:46:33.236Z,45.34
2019-02-26T08:49:08.247Z,45.21
2019-02-26T08:51:35.744Z,45.27
2019-02-26T08:54:05.850Z,45.25
2019-02-26T08:56:38.642Z,42.86
2019-02-26T08:59:08.366Z,44.39
2019-02-26T09:01:38.121Z,43.58
2019-02-26T09:04:08.220Z,43.48
2019-02-26T09:06:38.878Z,43.88
2019-02-26T09:09:08.857Z,41.84
2019-02-26T09:11:39.010Z,42.54
2019-02-26T09:14:12.133Z,42.46
2019-02-26T09:16:41.521Z,42.44
2019-02-26T09:19:11.475Z,42.22
2019-02-26T09:21:42.523Z,42.25
2019-02-26T09:24:13.018Z,41.96
2019-02-26T09:26:42.883Z,41.11
2019-02-26T09:29:15.525Z,42.26
2019-02-26T09:31:45.165Z,41.72
2019-02-26T09:34:15.342Z,40.82
2019-02-26T09:36:45.860Z,41.02
2019-02-26T09:39:16.640Z,40.50
2019-02-26T09:41:46.438Z,40.85
2019-02-26T09:44:16.934Z,40.23
2019-02-26T09:46:47.077Z,40.59
2019-02-26T09:49:17.081Z,39.59
2019-02-26T09:51:46.815Z,40.17
2019-02-26T09:54:17.770Z,40.09
2019-02-26T09:56:48.131Z,41.12
2019-02-26T09:59:19.409Z,41.50
2019-02-26T10:01:49.531Z,39.75
2019-02-26T10:04:20.137Z,41.36
2019-02-26T10:06:51.029Z,41.68
2019-02-26T10:09:21.188Z,41.10
2019-02-26T10:11:51.644Z,39.71
2019-02-26T10:14:23.126Z,39.89
2019-02-26T10:16:55.045Z,40.05
2019-02-26T10:19:24.548Z,39.93
2019-02-26T10:21:54.329Z,39.63
2019-02-26T10:24:27.185Z,38.47
2019-02-26T10:26:58.728Z,38.16
2019-02-26T10:29:27.136Z,38.90
2019-02-26T10:31:57.101Z,40.55
2019-02-26T10:34:30.255Z,39.63
2019-02-26T10:36:58.262Z,40.66
2019-02-26T10:39:28.425Z,40.90
2019-02-26T10:42:01.987Z,41.20
2019-02-26T10:44:30.526Z,40.67
2019-02-26T10:47:03.044Z,40.62
2019-02-26T10:49:32.258Z,40.29
2019-02-26T10:52:02.272Z,40.51
2019-02-26T10:54:39.376Z,40.06
2019-02-26T10:57:07.470Z,40.96
2019-02-26T10:59:35.760Z,39.91
2019-02-26T11:02:05.834Z,39.79
2019-02-26T11:04:41.070Z,39.21
2019-02-26T11:07:09.394Z,39.30
2019-02-26T11:09:39.424Z,38.99
2019-02-26T11:12:09.509Z,38.63
2019-02-26T11:14:41.787Z,38.26
2019-02-26T11:17:11.306Z,37.95
2019-02-26T11:19:41.929Z,36.88
2019-02-26T11:22:12.044Z,36.55
2019-02-26T11:24:42.107Z,36.23
2019-02-26T11:27:12.213Z,36.34
2019-02-26T11:29:42.342Z,37.18
2019-02-26T11:32:15.048Z,36.17
2019-02-26T11:34:43.893Z,37.54
2019-02-26T11:37:13.844Z,35.58
2019-02-26T11:39:43.820Z,34.83
2019-02-26T11:42:15.855Z,35.79
2019-02-26T11:44:45.529Z,35.88
2019-02-26T11:47:16.666Z,35.94
2019-02-26T11:49:46.978Z,36.48
2019-02-26T11:52:19.571Z,36.77
2019-02-26T11:54:49.694Z,36.88
2019-02-26T11:57:21.097Z,38.44
2019-02-26T11:59:52.539Z,37.89
2019-02-26T12:02:29.419Z,38.66
2019-02-26T12:04:58.013Z,38.39
2019-02-26T12:07:32.317Z,37.39
2019-02-26T12:12:37.505Z,38.51
2019-02-26T12:15:12.418Z,38.95
2019-02-26T12:17:46.017Z,39.67
2019-02-26T12:20:19.565Z,38.90
2019-02-26T12:22:52.366Z,38.27
2019-02-26T12:25:24.318Z,38.83
2019-02-26T12:27:55.704Z,39.68
2019-02-26T12:30:27.482Z,39.63
2019-02-26T12:32:59.025Z,39.50
2019-02-26T12:35:33.386Z,40.13
2019-02-26T12:38:17.299Z,40.27
2019-02-26T12:40:41.119Z,40.44
2019-02-26T12:43:14.706Z,40.97
2019-02-26T12:45:44.672Z,41.52
2019-02-26T12:48:19.606Z,41.11
2019-02-26T12:50:51.949Z,41.40
2019-02-26T12:53:23.620Z,41.52
2019-02-26T12:55:56.598Z,41.69
2019-02-26T12:58:28.339Z,41.17
2019-02-26T13:00:59.937Z,41.72
2019-02-26T13:03:31.317Z,42.52
2019-02-26T13:06:05.993Z,41.70
2019-02-26T13:08:39.663Z,41.80
2019-02-26T13:11:11.788Z,42.44
2019-02-26T13:13:44.770Z,42.19
2019-02-26T13:16:16.648Z,42.00
2019-02-26T13:18:51.225Z,41.96
2019-02-26T13:21:21.202Z,42.77
2019-02-26T13:23:52.540Z,42.31
2019-02-26T13:26:24.181Z,42.56
2019-02-26T13:29:00.479Z,42.65
2019-02-26T13:31:33.964Z,42.65
2019-02-26T13:34:03.382Z,42.99
2019-02-26T13:36:36.920Z,43.08
2019-02-26T13:39:08.851Z,43.43
2019-02-26T13:41:42.069Z,43.17
2019-02-26T13:44:13.504Z,43.08
2019-02-26T13:46:45.063Z,42.54
2019-02-26T13:49:16.426Z,43.24
2019-02-26T13:51:47.681Z,42.97
2019-02-26T13:54:19.067Z,43.31
2019-02-26T13:56:50.310Z,44.00
2019-02-26T13:59:21.644Z,43.99
2019-02-26T14:01:53.332Z,43.91
2019-02-26T14:04:25.032Z,44.12
2019-02-26T14:06:56.729Z,44.99
2019-02-26T14:09:28.752Z,44.74
2019-02-26T14:12:00.450Z,44.69
2019-02-26T14:14:32.224Z,44.56
2019-02-26T14:17:03.971Z,45.06
2019-02-26T14:19:35.428Z,44.35
2019-02-26T14:22:07.263Z,44.89
2019-02-26T14:24:38.996Z,44.70
2019-02-26T14:27:10.476Z,44.18
2019-02-26T14:29:41.981Z,44.60
2019-02-26T14:32:13.455Z,44.53
2019-02-26T14:34:45.207Z,44.17
2019-02-26T14:37:16.838Z,44.62
2019-02-26T14:39:48.518Z,44.41
2019-02-26T14:42:21.598Z,44.35
2019-02-26T14:44:54.212Z,44.62
2019-02-26T14:47:25.943Z,45.13
2019-02-26T14:49:57.543Z,44.06
2019-02-26T14:52:29.169Z,44.53
2019-02-26T14:55:00.646Z,45.08
2019-02-26T14:57:33.074Z,44.66
2019-02-26T15:00:04.932Z,44.70
2019-02-26T15:02:37.716Z,44.79
2019-02-26T15:05:09.309Z,44.48
2019-02-26T15:07:40.618Z,44.67
2019-02-26T15:10:12.387Z,44.79
2019-02-26T15:12:44.116Z,44.93
2019-02-26T15:15:16.123Z,45.24
2019-02-26T15:17:47.798Z,45.53
2019-02-26T15:20:19.283Z,46.11
2019-02-26T15:22:50.701Z,45.40
2019-02-26T15:25:22.892Z,45.74
2019-02-26T15:27:54.324Z,45.64
2019-02-26T15:30:25.789Z,45.07
2019-02-26T15:32:57.281Z,45.54
2019-02-26T15:35:29.014Z,45.51
2019-02-26T15:38:00.645Z,45.87
2019-02-26T15:40:32.294Z,45.84
2019-02-26T15:43:03.920Z,45.82
2019-02-26T15:45:35.688Z,46.38
2019-02-26T15:48:07.448Z,45.77
2019-02-26T15:50:40.236Z,46.05
2019-02-26T15:53:12.163Z,45.96
2019-02-26T15:55:43.782Z,46.42
2019-02-26T15:58:15.378Z,46.68
2019-02-26T16:00:47.053Z,46.53
2019-02-26T16:03:18.907Z,46.60
2019-02-26T16:05:50.346Z,47.01
2019-02-26T16:08:21.948Z,47.37
2019-02-26T16:10:53.571Z,47.54
2019-02-26T16:13:25.212Z,47.07
2019-02-26T16:15:56.915Z,47.67
2019-02-26T16:18:29.616Z,47.28
2019-02-26T16:21:01.951Z,47.22
2019-02-26T16:23:33.375Z,47.67
2019-02-26T16:26:05.698Z,47.64
2019-02-26T16:28:37.911Z,47.68
2019-02-26T16:31:09.534Z,47.64
2019-02-26T16:33:41.213Z,47.93
2019-02-26T16:36:13.104Z,47.98
2019-02-26T16:38:44.773Z,47.93
2019-02-26T16:41:16.568Z,48.12
2019-02-26T16:43:51.655Z,47.91
2019-02-26T16:46:21.270Z,48.30
2019-02-26T16:48:53.570Z,48.61
2019-02-26T16:51:25.503Z,48.67
2019-02-26T16:53:57.122Z,49.35
2019-02-26T16:56:28.810Z,50.08
2019-02-26T16:59:00.617Z,50.27
2019-02-26T17:01:32.315Z,50.43
2019-02-26T17:04:05.595Z,50.94
2019-02-26T17:06:36.959Z,51.19
2019-02-26T17:09:09.150Z,51.57
2019-02-26T17:11:41.681Z,51.52
2019-02-26T17:14:14.810Z,51.35
2019-02-26T17:16:46.589Z,51.49
2019-02-26T17:19:18.183Z,51.33
2019-02-26T17:21:49.533Z,51.54
2019-02-26T17:24:21.396Z,51.35
2019-02-26T17:26:52.772Z,51.45
2019-02-26T17:29:24.025Z,51.73
2019-02-26T17:31:55.717Z,51.77
2019-02-26T17:34:27.278Z,52.21
2019-02-26T17:36:58.955Z,52.17
2019-02-26T17:39:30.489Z,51.93
2019-02-26T17:42:01.780Z,52.24
2019-02-26T17:44:33.924Z,53.04
2019-02-26T17:47:05.657Z,52.84
2019-02-26T17:49:37.020Z,53.36
2019-02-26T17:52:08.464Z,53.16
2019-02-26T17:54:40.109Z,53.41
2019-02-26T17:57:11.701Z,53.44
2019-02-26T17:59:43.460Z,53.32
2019-02-26T18:02:15.101Z,53.62
2019-02-26T18:04:46.779Z,53.51
2019-02-26T18:07:18.309Z,54.14
2019-02-26T18:09:50.622Z,54.07
2019-02-26T18:12:23.278Z,54.22
2019-02-26T18:14:56.157Z,54.23
2019-02-26T18:17:27.936Z,54.61
2019-02-26T18:19:59.144Z,54.52
2019-02-26T18:22:30.450Z,54.44
2019-02-26T18:25:01.953Z,54.82
2019-02-26T18:27:33.569Z,54.05
2019-02-26T18:30:05.703Z,53.98
2019-02-26T18:32:37.328Z,54.49
2019-02-26T18:35:08.642Z,54.31
2019-02-26T18:37:46.430Z,54.12
2019-02-26T18:40:14.016Z,54.12
2019-02-26T18:42:45.588Z,54.32
2019-02-26T18:45:19.402Z,54.36
2019-02-26T18:47:51.172Z,54.18
2019-02-26T18:50:22.830Z,54.32
2019-02-26T18:52:54.051Z,54.48
2019-02-26T18:55:28.414Z,54.76
2019-02-26T18:57:59.215Z,54.86
2019-02-26T19:00:30.830Z,54.88
2019-02-26T19:03:02.628Z,55.02
2019-02-26T19:05:34.379Z,54.94
2019-02-26T19:08:06.534Z,54.91
2019-02-26T19:10:39.261Z,54.74
2019-02-26T19:13:10.643Z,54.99
2019-02-26T19:15:42.234Z,55.23
2019-02-26T19:18:13.766Z,55.33
2019-02-26T19:20:48.903Z,55.29
2019-02-26T19:23:18.579Z,55.37
2019-02-26T19:25:50.143Z,55.40
2019-02-26T19:28:25.626Z,55.54
2019-02-26T19:30:54.998Z,55.69
2019-02-26T19:33:26.385Z,55.71
2019-02-26T19:35:58.001Z,55.60
2019-02-26T19:38:29.680Z,56.03
2019-02-26T19:41:03.425Z,55.82
2019-02-26T19:43:35.049Z,56.34
2019-02-26T19:46:06.415Z,55.83
2019-02-26T19:48:37.869Z,55.81
2019-02-26T19:51:09.269Z,55.92
2019-02-26T19:53:40.661Z,56.29
2019-02-26T19:56:11.984Z,56.38
2019-02-26T19:58:43.290Z,56.43
2019-02-26T20:01:14.626Z,56.60
2019-02-26T20:03:46.005Z,57.68
2019-02-26T20:06:18.748Z,58.35
2019-02-26T20:08:51.393Z,58.94
2019-02-26T20:11:23.325Z,59.25
2019-02-26T20:14:04.316Z,59.35
2019-02-26T20:16:28.442Z,59.61
2019-02-26T20:18:59.823Z,59.50
2019-02-26T20:21:31.598Z,59.63
2019-02-26T20:24:03.002Z,59.75
2019-02-26T20:26:34.646Z,59.81
2019-02-26T20:29:07.791Z,59.66
2019-02-26T20:31:39.433Z,59.84
2019-02-26T20:34:11.025Z,59.65
2019-02-26T20:36:42.733Z,59.46
2019-02-26T20:39:14.249Z,59.39
2019-02-26T20:41:46.166Z,59.51
2019-02-26T20:44:17.357Z,59.31
2019-02-26T20:46:48.658Z,59.39
2019-02-26T20:49:19.897Z,58.68
2019-02-26T20:51:51.144Z,58.64
2019-02-26T20:54:23.833Z,58.75
2019-02-26T20:56:55.077Z,58.63
2019-02-26T20:59:26.275Z,58.48
2019-02-26T21:01:57.772Z,58.21
2019-02-26T21:04:29.525Z,57.96
2019-02-26T21:07:00.974Z,57.68
2019-02-26T21:09:32.849Z,57.95
2019-02-26T21:12:04.308Z,57.83
2019-02-26T21:14:35.894Z,58.14
2019-02-26T21:17:09.389Z,58.44
2019-02-26T21:19:40.781Z,59.36
2019-02-26T21:22:12.272Z,59.34
2019-02-26T21:24:43.691Z,59.30
2019-02-26T21:27:14.925Z,59.28
2019-02-26T21:29:46.583Z,59.13
2019-02-26T21:32:18.076Z,58.78
2019-02-26T21:34:49.742Z,58.86
2019-02-26T21:37:21.340Z,59.02
2019-02-26T21:39:52.783Z,59.67
2019-02-26T21:42:24.149Z,59.63
2019-02-26T21:44:55.698Z,60.18
2019-02-26T21:47:27.030Z,60.38
2019-02-26T21:49:58.305Z,60.69
2019-02-26T21:52:29.919Z,60.46
2019-02-26T21:55:01.826Z,60.64
2019-02-26T21:57:33.506Z,60.72
2019-02-26T22:00:06.054Z,60.79
2019-02-26T22:02:39.099Z,61.88
2019-02-26T22:05:10.768Z,61.37
2019-02-26T22:07:42.583Z,62.08
2019-02-26T22:10:14.898Z,62.83
2019-02-26T22:12:46.370Z,63.32
2019-02-26T22:15:17.921Z,63.09
2019-02-26T22:17:49.612Z,63.22
2019-02-26T22:20:27.504Z,62.80
2019-02-26T22:22:54.523Z,62.80
2019-02-26T22:25:25.911Z,62.84
2019-02-26T22:27:57.481Z,62.59
2019-02-26T22:30:29.176Z,62.32
2019-02-26T22:33:00.504Z,62.28
2019-02-26T22:35:31.791Z,61.88
2019-02-26T22:38:03.148Z,62.05
2019-02-26T22:40:34.392Z,62.11
2019-02-26T22:43:06.125Z,62.15
2019-02-26T22:45:37.385Z,62.33
2019-02-26T22:48:08.778Z,62.65
2019-02-26T22:50:40.729Z,62.84
2019-02-26T22:53:12.209Z,63.01
2019-02-26T22:55:43.674Z,63.01
2019-02-26T22:58:15.439Z,62.86
2019-02-26T23:01:14.436Z,62.38
2019-02-26T23:03:47.551Z,62.20
2019-02-26T23:06:19.134Z,61.95
2019-02-26T23:08:50.943Z,61.88
2019-02-26T23:11:22.607Z,61.49
2019-02-26T23:13:54.446Z,62.33
2019-02-26T23:16:26.979Z,61.94
2019-02-26T23:18:58.832Z,61.39
2019-02-26T23:21:30.919Z,61.14
2019-02-26T23:24:02.729Z,61.46
2019-02-26T23:26:34.356Z,61.72
2019-02-26T23:29:06.140Z,61.14
2019-02-26T23:31:37.830Z,61.07
2019-02-26T23:34:09.344Z,61.13
2019-02-26T23:36:41.129Z,60.99
2019-02-26T23:39:15.753Z,60.12
2019-02-26T23:41:48.622Z,60.77
2019-02-26T23:44:19.964Z,60.77
2019-02-26T23:46:51.377Z,60.48
2019-02-26T23:49:22.811Z,61.01
2019-02-26T23:51:54.629Z,61.70
2019-02-26T23:54:26.046Z,61.44
2019-02-26T23:56:57.395Z,61.45
2019-02-26T23:59:28.820Z,61.30
